sensor_id;sensor_type;location;lat;lon;timestamp;P1;durP1;ratioP1;P2;durP2;ratioP2
69369;SDS011;56530;42.640;23.372;2023-02-26T00:01:35;12.95;;;5.25;;
69369;SDS011;56530;42.640;23.372;2023-02-26T00:04:01;10.77;;;5.20;;
69369;SDS011;56530;42.640;23.372;2023-02-26T00:06:32;13.98;;;5.20;;
69369;SDS011;56530;42.640;23.372;2023-02-26T00:08:58;14.32;;;5.72;;
69369;SDS011;56530;42.640;23.372;2023-02-26T00:11:24;18.73;;;5.93;;
69369;SDS011;56530;42.640;23.372;2023-02-26T00:13:50;13.55;;;4.85;;
69369;SDS011;56530;42.640;23.372;2023-02-26T00:16:29;12.38;;;4.00;;
69369;SDS011;56530;42.640;23.372;2023-02-26T00:18:55;8.98;;;4.43;;
69369;SDS011;56530;42.640;23.372;2023-02-26T00:21:22;12.40;;;5.88;;
69369;SDS011;56530;42.640;23.372;2023-02-26T00:23:49;10.82;;;5.30;;
69369;SDS011;56530;42.640;23.372;2023-02-26T00:26:14;16.58;;;5.57;;
69369;SDS011;56530;42.640;23.372;2023-02-26T00:28:40;19.55;;;4.28;;
69369;SDS011;56530;42.640;23.372;2023-02-26T00:31:05;12.00;;;4.93;;
69369;SDS011;56530;42.640;23.372;2023-02-26T00:33:32;9.02;;;4.45;;
69369;SDS011;56530;42.640;23.372;2023-02-26T00:39:01;13.40;;;5.40;;
69369;SDS011;56530;42.640;23.372;2023-02-26T00:41:51;13.35;;;5.95;;
69369;SDS011;56530;42.640;23.372;2023-02-26T00:44:16;14.32;;;4.70;;
69369;SDS011;56530;42.640;23.372;2023-02-26T00:46:48;10.65;;;5.03;;
69369;SDS011;56530;42.640;23.372;2023-02-26T00:52:14;14.98;;;5.43;;
69369;SDS011;56530;42.640;23.372;2023-02-26T00:54:56;26.80;;;6.05;;
69369;SDS011;56530;42.640;23.372;2023-02-26T00:57:22;17.13;;;4.95;;
69369;SDS011;56530;42.640;23.372;2023-02-26T00:59:47;16.70;;;4.63;;
69369;SDS011;56530;42.640;23.372;2023-02-26T01:02:12;13.40;;;4.47;;
69369;SDS011;56530;42.640;23.372;2023-02-26T01:04:38;14.75;;;4.80;;
69369;SDS011;56530;42.640;23.372;2023-02-26T01:07:04;17.25;;;4.88;;
69369;SDS011;56530;42.640;23.372;2023-02-26T01:09:31;12.35;;;5.07;;
69369;SDS011;56530;42.640;23.372;2023-02-26T01:12:03;11.63;;;4.85;;
69369;SDS011;56530;42.640;23.372;2023-02-26T01:14:33;17.38;;;4.38;;
69369;SDS011;56530;42.640;23.372;2023-02-26T01:20:03;11.90;;;4.43;;
69369;SDS011;56530;42.640;23.372;2023-02-26T01:25:03;13.25;;;4.70;;
69369;SDS011;56530;42.640;23.372;2023-02-26T01:27:31;11.77;;;4.72;;
69369;SDS011;56530;42.640;23.372;2023-02-26T01:29:57;18.60;;;4.35;;
69369;SDS011;56530;42.640;23.372;2023-02-26T01:35:12;16.98;;;4.43;;
69369;SDS011;56530;42.640;23.372;2023-02-26T01:42:42;17.60;;;6.47;;
69369;SDS011;56530;42.640;23.372;2023-02-26T01:45:10;9.02;;;3.97;;
69369;SDS011;56530;42.640;23.372;2023-02-26T01:47:38;16.25;;;4.00;;
69369;SDS011;56530;42.640;23.372;2023-02-26T01:50:10;10.90;;;3.72;;
69369;SDS011;56530;42.640;23.372;2023-02-26T01:55:13;11.25;;;3.50;;
69369;SDS011;56530;42.640;23.372;2023-02-26T01:57:44;20.92;;;4.88;;
69369;SDS011;56530;42.640;23.372;2023-02-26T02:00:10;14.80;;;4.10;;
69369;SDS011;56530;42.640;23.372;2023-02-26T02:02:36;14.10;;;4.35;;
69369;SDS011;56530;42.640;23.372;2023-02-26T02:05:06;13.38;;;4.40;;
69369;SDS011;56530;42.640;23.372;2023-02-26T02:07:36;17.77;;;4.93;;
69369;SDS011;56530;42.640;23.372;2023-02-26T02:10:02;14.35;;;4.03;;
69369;SDS011;56530;42.640;23.372;2023-02-26T02:12:34;20.73;;;5.57;;
69369;SDS011;56530;42.640;23.372;2023-02-26T02:15:09;5.68;;;3.38;;
69369;SDS011;56530;42.640;23.372;2023-02-26T02:17:49;15.20;;;4.35;;
69369;SDS011;56530;42.640;23.372;2023-02-26T02:23:32;17.33;;;5.07;;
69369;SDS011;56530;42.640;23.372;2023-02-26T02:34:39;10.73;;;3.70;;
69369;SDS011;56530;42.640;23.372;2023-02-26T02:39:51;9.85;;;3.50;;
69369;SDS011;56530;42.640;23.372;2023-02-26T02:42:25;8.27;;;3.80;;
69369;SDS011;56530;42.640;23.372;2023-02-26T02:45:00;22.05;;;4.18;;
69369;SDS011;56530;42.640;23.372;2023-02-26T02:47:30;12.60;;;3.63;;
69369;SDS011;56530;42.640;23.372;2023-02-26T02:49:58;15.57;;;4.30;;
69369;SDS011;56530;42.640;23.372;2023-02-26T02:52:34;13.30;;;3.97;;
69369;SDS011;56530;42.640;23.372;2023-02-26T02:55:05;15.60;;;4.30;;
69369;SDS011;56530;42.640;23.372;2023-02-26T03:00:04;10.10;;;4.00;;
69369;SDS011;56530;42.640;23.372;2023-02-26T03:05:01;12.55;;;3.60;;
69369;SDS011;56530;42.640;23.372;2023-02-26T03:07:27;14.30;;;3.80;;
69369;SDS011;56530;42.640;23.372;2023-02-26T03:09:55;17.75;;;4.10;;
69369;SDS011;56530;42.640;23.372;2023-02-26T03:12:20;11.50;;;3.58;;
69369;SDS011;56530;42.640;23.372;2023-02-26T03:14:46;9.27;;;3.17;;
69369;SDS011;56530;42.640;23.372;2023-02-26T03:19:44;16.85;;;4.57;;
69369;SDS011;56530;42.640;23.372;2023-02-26T03:22:22;5.00;;;2.92;;
69369;SDS011;56530;42.640;23.372;2023-02-26T03:24:55;12.15;;;3.60;;
69369;SDS011;56530;42.640;23.372;2023-02-26T03:30:02;20.60;;;4.22;;
69369;SDS011;56530;42.640;23.372;2023-02-26T03:35:19;16.13;;;5.57;;
69369;SDS011;56530;42.640;23.372;2023-02-26T03:37:51;12.63;;;4.00;;
69369;SDS011;56530;42.640;23.372;2023-02-26T03:40:27;16.35;;;3.97;;
69369;SDS011;56530;42.640;23.372;2023-02-26T03:43:17;20.70;;;4.30;;
69369;SDS011;56530;42.640;23.372;2023-02-26T03:45:44;8.57;;;3.97;;
69369;SDS011;56530;42.640;23.372;2023-02-26T03:48:12;19.35;;;5.00;;
69369;SDS011;56530;42.640;23.372;2023-02-26T03:50:45;12.80;;;3.33;;
69369;SDS011;56530;42.640;23.372;2023-02-26T03:53:14;9.65;;;3.40;;
69369;SDS011;56530;42.640;23.372;2023-02-26T03:55:48;9.90;;;3.72;;
69369;SDS011;56530;42.640;23.372;2023-02-26T03:58:16;12.88;;;3.70;;
69369;SDS011;56530;42.640;23.372;2023-02-26T04:00:43;17.48;;;4.75;;
69369;SDS011;56530;42.640;23.372;2023-02-26T04:03:12;13.43;;;3.70;;
69369;SDS011;56530;42.640;23.372;2023-02-26T04:05:41;14.85;;;3.95;;
69369;SDS011;56530;42.640;23.372;2023-02-26T04:08:09;13.25;;;3.47;;
69369;SDS011;56530;42.640;23.372;2023-02-26T04:10:43;18.65;;;3.85;;
69369;SDS011;56530;42.640;23.372;2023-02-26T04:13:10;13.15;;;4.28;;
69369;SDS011;56530;42.640;23.372;2023-02-26T04:15:36;12.88;;;3.65;;
69369;SDS011;56530;42.640;23.372;2023-02-26T04:18:01;20.05;;;3.58;;
69369;SDS011;56530;42.640;23.372;2023-02-26T04:20:27;14.07;;;3.80;;
69369;SDS011;56530;42.640;23.372;2023-02-26T04:22:52;16.92;;;3.85;;
69369;SDS011;56530;42.640;23.372;2023-02-26T04:25:18;7.85;;;4.25;;
69369;SDS011;56530;42.640;23.372;2023-02-26T04:27:43;12.73;;;4.13;;
69369;SDS011;56530;42.640;23.372;2023-02-26T04:30:09;15.15;;;3.85;;
69369;SDS011;56530;42.640;23.372;2023-02-26T04:32:35;14.73;;;4.45;;
69369;SDS011;56530;42.640;23.372;2023-02-26T04:35:00;15.05;;;3.42;;
69369;SDS011;56530;42.640;23.372;2023-02-26T04:37:25;15.32;;;4.07;;
69369;SDS011;56530;42.640;23.372;2023-02-26T04:39:51;9.38;;;3.25;;
69369;SDS011;56530;42.640;23.372;2023-02-26T04:42:16;18.52;;;4.07;;
69369;SDS011;56530;42.640;23.372;2023-02-26T04:44:42;12.77;;;3.55;;
69369;SDS011;56530;42.640;23.372;2023-02-26T04:47:07;15.48;;;4.03;;
69369;SDS011;56530;42.640;23.372;2023-02-26T04:49:33;13.35;;;4.40;;
69369;SDS011;56530;42.640;23.372;2023-02-26T04:51:58;18.45;;;4.15;;
69369;SDS011;56530;42.640;23.372;2023-02-26T04:54:24;17.83;;;4.30;;
69369;SDS011;56530;42.640;23.372;2023-02-26T04:56:49;18.83;;;4.60;;
69369;SDS011;56530;42.640;23.372;2023-02-26T04:59:14;11.20;;;4.32;;
69369;SDS011;56530;42.640;23.372;2023-02-26T05:01:40;13.88;;;3.78;;
69369;SDS011;56530;42.640;23.372;2023-02-26T05:04:05;14.57;;;4.03;;
69369;SDS011;56530;42.640;23.372;2023-02-26T05:06:31;12.85;;;3.47;;
69369;SDS011;56530;42.640;23.372;2023-02-26T05:08:56;13.90;;;3.65;;
69369;SDS011;56530;42.640;23.372;2023-02-26T05:11:22;20.25;;;4.22;;
69369;SDS011;56530;42.640;23.372;2023-02-26T05:13:47;14.35;;;3.78;;
69369;SDS011;56530;42.640;23.372;2023-02-26T05:16:12;12.98;;;4.82;;
69369;SDS011;56530;42.640;23.372;2023-02-26T05:18:38;12.73;;;3.33;;
69369;SDS011;56530;42.640;23.372;2023-02-26T05:21:03;12.40;;;3.45;;
69369;SDS011;56530;42.640;23.372;2023-02-26T05:23:29;23.63;;;4.65;;
69369;SDS011;56530;42.640;23.372;2023-02-26T05:25:55;20.25;;;4.95;;
69369;SDS011;56530;42.640;23.372;2023-02-26T05:28:21;16.58;;;4.05;;
69369;SDS011;56530;42.640;23.372;2023-02-26T05:30:47;12.23;;;2.90;;
69369;SDS011;56530;42.640;23.372;2023-02-26T05:33:12;12.45;;;4.75;;
69369;SDS011;56530;42.640;23.372;2023-02-26T05:35:37;17.92;;;4.65;;
69369;SDS011;56530;42.640;23.372;2023-02-26T05:38:03;15.70;;;3.55;;
69369;SDS011;56530;42.640;23.372;2023-02-26T05:40:28;17.48;;;3.83;;
69369;SDS011;56530;42.640;23.372;2023-02-26T05:42:54;16.65;;;3.63;;
69369;SDS011;56530;42.640;23.372;2023-02-26T05:45:19;17.92;;;4.22;;
69369;SDS011;56530;42.640;23.372;2023-02-26T05:47:44;9.68;;;4.80;;
69369;SDS011;56530;42.640;23.372;2023-02-26T05:50:10;14.60;;;3.92;;
69369;SDS011;56530;42.640;23.372;2023-02-26T05:52:36;21.83;;;4.07;;
69369;SDS011;56530;42.640;23.372;2023-02-26T05:55:01;9.27;;;3.83;;
69369;SDS011;56530;42.640;23.372;2023-02-26T05:57:27;15.45;;;3.22;;
69369;SDS011;56530;42.640;23.372;2023-02-26T05:59:53;17.40;;;3.88;;
69369;SDS011;56530;42.640;23.372;2023-02-26T06:02:18;14.18;;;4.32;;
69369;SDS011;56530;42.640;23.372;2023-02-26T06:04:43;22.65;;;4.28;;
69369;SDS011;56530;42.640;23.372;2023-02-26T06:07:09;15.82;;;3.97;;
69369;SDS011;56530;42.640;23.372;2023-02-26T06:09:34;26.00;;;5.75;;
69369;SDS011;56530;42.640;23.372;2023-02-26T06:12:00;20.23;;;4.57;;
69369;SDS011;56530;42.640;23.372;2023-02-26T06:14:25;17.27;;;4.65;;
69369;SDS011;56530;42.640;23.372;2023-02-26T06:16:51;17.40;;;3.92;;
69369;SDS011;56530;42.640;23.372;2023-02-26T06:19:16;23.23;;;4.35;;
69369;SDS011;56530;42.640;23.372;2023-02-26T06:21:41;24.65;;;4.68;;
69369;SDS011;56530;42.640;23.372;2023-02-26T06:24:07;16.90;;;4.07;;
69369;SDS011;56530;42.640;23.372;2023-02-26T06:26:32;25.75;;;5.35;;
69369;SDS011;56530;42.640;23.372;2023-02-26T06:28:58;10.23;;;2.63;;
69369;SDS011;56530;42.640;23.372;2023-02-26T06:31:23;14.00;;;4.03;;
69369;SDS011;56530;42.640;23.372;2023-02-26T06:33:49;32.13;;;5.28;;
69369;SDS011;56530;42.640;23.372;2023-02-26T06:36:14;19.73;;;5.28;;
69369;SDS011;56530;42.640;23.372;2023-02-26T06:38:39;18.25;;;5.45;;
69369;SDS011;56530;42.640;23.372;2023-02-26T06:41:06;19.85;;;4.43;;
69369;SDS011;56530;42.640;23.372;2023-02-26T06:43:31;15.75;;;3.40;;
69369;SDS011;56530;42.640;23.372;2023-02-26T06:45:57;19.40;;;3.78;;
69369;SDS011;56530;42.640;23.372;2023-02-26T06:48:23;24.58;;;4.85;;
69369;SDS011;56530;42.640;23.372;2023-02-26T06:50:49;20.88;;;4.93;;
69369;SDS011;56530;42.640;23.372;2023-02-26T06:53:14;26.67;;;4.57;;
69369;SDS011;56530;42.640;23.372;2023-02-26T06:55:43;16.52;;;4.40;;
69369;SDS011;56530;42.640;23.372;2023-02-26T06:58:09;15.77;;;3.47;;
69369;SDS011;56530;42.640;23.372;2023-02-26T07:00:35;10.23;;;3.80;;
69369;SDS011;56530;42.640;23.372;2023-02-26T07:03:02;21.38;;;6.03;;
69369;SDS011;56530;42.640;23.372;2023-02-26T07:05:27;32.20;;;5.00;;
69369;SDS011;56530;42.640;23.372;2023-02-26T07:07:53;31.88;;;4.82;;
69369;SDS011;56530;42.640;23.372;2023-02-26T07:10:18;41.58;;;6.03;;
69369;SDS011;56530;42.640;23.372;2023-02-26T07:12:45;21.70;;;5.38;;
69369;SDS011;56530;42.640;23.372;2023-02-26T07:15:12;17.67;;;4.40;;
69369;SDS011;56530;42.640;23.372;2023-02-26T07:17:38;20.98;;;4.45;;
69369;SDS011;56530;42.640;23.372;2023-02-26T07:20:03;18.65;;;4.05;;
69369;SDS011;56530;42.640;23.372;2023-02-26T07:22:30;23.92;;;4.18;;
69369;SDS011;56530;42.640;23.372;2023-02-26T07:24:56;19.88;;;5.13;;
69369;SDS011;56530;42.640;23.372;2023-02-26T07:27:24;21.73;;;4.28;;
69369;SDS011;56530;42.640;23.372;2023-02-26T07:29:50;17.65;;;4.65;;
69369;SDS011;56530;42.640;23.372;2023-02-26T07:32:15;28.13;;;4.72;;
69369;SDS011;56530;42.640;23.372;2023-02-26T07:34:41;23.65;;;4.40;;
69369;SDS011;56530;42.640;23.372;2023-02-26T07:37:06;22.20;;;4.28;;
69369;SDS011;56530;42.640;23.372;2023-02-26T07:39:32;19.00;;;4.72;;
69369;SDS011;56530;42.640;23.372;2023-02-26T07:41:57;23.20;;;3.88;;
69369;SDS011;56530;42.640;23.372;2023-02-26T07:44:23;25.27;;;4.20;;
69369;SDS011;56530;42.640;23.372;2023-02-26T07:46:48;18.52;;;5.03;;
69369;SDS011;56530;42.640;23.372;2023-02-26T07:49:14;26.20;;;4.10;;
69369;SDS011;56530;42.640;23.372;2023-02-26T07:51:39;18.13;;;4.68;;
69369;SDS011;56530;42.640;23.372;2023-02-26T07:54:09;19.70;;;3.72;;
69369;SDS011;56530;42.640;23.372;2023-02-26T07:56:35;28.08;;;4.55;;
69369;SDS011;56530;42.640;23.372;2023-02-26T07:59:02;14.95;;;3.42;;
69369;SDS011;56530;42.640;23.372;2023-02-26T08:01:28;15.88;;;3.75;;
69369;SDS011;56530;42.640;23.372;2023-02-26T08:03:53;16.98;;;4.47;;
69369;SDS011;56530;42.640;23.372;2023-02-26T08:06:18;31.10;;;4.15;;
69369;SDS011;56530;42.640;23.372;2023-02-26T08:08:44;33.72;;;4.88;;
69369;SDS011;56530;42.640;23.372;2023-02-26T08:11:09;25.90;;;5.13;;
69369;SDS011;56530;42.640;23.372;2023-02-26T08:13:35;17.23;;;4.55;;
69369;SDS011;56530;42.640;23.372;2023-02-26T08:16:00;31.10;;;5.18;;
69369;SDS011;56530;42.640;23.372;2023-02-26T08:18:25;18.70;;;3.95;;
69369;SDS011;56530;42.640;23.372;2023-02-26T08:20:51;16.92;;;4.65;;
69369;SDS011;56530;42.640;23.372;2023-02-26T08:23:16;11.77;;;3.80;;
69369;SDS011;56530;42.640;23.372;2023-02-26T08:25:42;17.67;;;3.83;;
69369;SDS011;56530;42.640;23.372;2023-02-26T08:28:07;20.52;;;4.15;;
69369;SDS011;56530;42.640;23.372;2023-02-26T08:30:33;21.63;;;4.05;;
69369;SDS011;56530;42.640;23.372;2023-02-26T08:32:58;25.67;;;3.95;;
69369;SDS011;56530;42.640;23.372;2023-02-26T08:35:24;20.58;;;3.97;;
69369;SDS011;56530;42.640;23.372;2023-02-26T08:37:49;14.43;;;5.00;;
69369;SDS011;56530;42.640;23.372;2023-02-26T08:40:15;19.55;;;4.43;;
69369;SDS011;56530;42.640;23.372;2023-02-26T08:42:41;18.52;;;4.53;;
69369;SDS011;56530;42.640;23.372;2023-02-26T08:45:06;15.15;;;4.40;;
69369;SDS011;56530;42.640;23.372;2023-02-26T08:47:32;19.15;;;4.43;;
69369;SDS011;56530;42.640;23.372;2023-02-26T08:49:58;23.50;;;4.32;;
69369;SDS011;56530;42.640;23.372;2023-02-26T08:52:23;19.55;;;4.03;;
69369;SDS011;56530;42.640;23.372;2023-02-26T08:54:49;24.45;;;5.35;;
69369;SDS011;56530;42.640;23.372;2023-02-26T08:57:15;16.17;;;4.57;;
69369;SDS011;56530;42.640;23.372;2023-02-26T08:59:40;23.48;;;5.28;;
69369;SDS011;56530;42.640;23.372;2023-02-26T09:02:06;24.48;;;5.22;;
69369;SDS011;56530;42.640;23.372;2023-02-26T09:04:31;20.70;;;4.13;;
69369;SDS011;56530;42.640;23.372;2023-02-26T09:06:57;18.42;;;4.30;;
69369;SDS011;56530;42.640;23.372;2023-02-26T09:09:22;16.55;;;3.80;;
69369;SDS011;56530;42.640;23.372;2023-02-26T09:11:48;13.10;;;3.60;;
69369;SDS011;56530;42.640;23.372;2023-02-26T09:14:13;20.15;;;4.93;;
69369;SDS011;56530;42.640;23.372;2023-02-26T09:16:38;24.33;;;4.97;;
69369;SDS011;56530;42.640;23.372;2023-02-26T09:19:04;18.17;;;4.05;;
69369;SDS011;56530;42.640;23.372;2023-02-26T09:21:31;16.30;;;4.68;;
69369;SDS011;56530;42.640;23.372;2023-02-26T09:23:57;17.65;;;4.30;;
69369;SDS011;56530;42.640;23.372;2023-02-26T09:26:22;13.27;;;4.28;;
69369;SDS011;56530;42.640;23.372;2023-02-26T09:28:47;20.90;;;4.15;;
69369;SDS011;56530;42.640;23.372;2023-02-26T09:31:13;24.23;;;5.45;;
69369;SDS011;56530;42.640;23.372;2023-02-26T09:33:38;24.27;;;4.03;;
69369;SDS011;56530;42.640;23.372;2023-02-26T09:36:04;16.15;;;4.07;;
69369;SDS011;56530;42.640;23.372;2023-02-26T09:38:30;20.58;;;3.85;;
69369;SDS011;56530;42.640;23.372;2023-02-26T09:40:57;17.17;;;3.92;;
69369;SDS011;56530;42.640;23.372;2023-02-26T09:43:27;22.02;;;4.53;;
69369;SDS011;56530;42.640;23.372;2023-02-26T09:48:50;21.17;;;4.35;;
69369;SDS011;56530;42.640;23.372;2023-02-26T09:51:20;18.50;;;4.05;;
69369;SDS011;56530;42.640;23.372;2023-02-26T09:53:46;23.00;;;4.93;;
69369;SDS011;56530;42.640;23.372;2023-02-26T09:56:15;19.60;;;5.35;;
69369;SDS011;56530;42.640;23.372;2023-02-26T09:58:42;18.35;;;4.57;;
69369;SDS011;56530;42.640;23.372;2023-02-26T10:06:20;16.73;;;4.97;;
69369;SDS011;56530;42.640;23.372;2023-02-26T10:11:52;13.10;;;4.55;;
69369;SDS011;56530;42.640;23.372;2023-02-26T10:14:38;13.50;;;4.53;;
69369;SDS011;56530;42.640;23.372;2023-02-26T10:17:27;12.48;;;4.15;;
69369;SDS011;56530;42.640;23.372;2023-02-26T10:19:59;14.93;;;3.67;;
69369;SDS011;56530;42.640;23.372;2023-02-26T10:22:44;17.65;;;3.22;;
69369;SDS011;56530;42.640;23.372;2023-02-26T10:25:38;16.50;;;4.45;;
69369;SDS011;56530;42.640;23.372;2023-02-26T10:31:03;13.80;;;4.00;;
69369;SDS011;56530;42.640;23.372;2023-02-26T10:39:00;14.23;;;4.70;;
69369;SDS011;56530;42.640;23.372;2023-02-26T10:41:28;20.05;;;3.97;;
69369;SDS011;56530;42.640;23.372;2023-02-26T10:44:02;9.30;;;3.13;;
69369;SDS011;56530;42.640;23.372;2023-02-26T10:51:50;10.63;;;4.00;;
69369;SDS011;56530;42.640;23.372;2023-02-26T10:56:47;12.65;;;3.15;;
69369;SDS011;56530;42.640;23.372;2023-02-26T10:59:13;12.20;;;4.53;;
69369;SDS011;56530;42.640;23.372;2023-02-26T11:01:38;16.85;;;3.80;;
69369;SDS011;56530;42.640;23.372;2023-02-26T11:04:17;18.38;;;3.88;;
69369;SDS011;56530;42.640;23.372;2023-02-26T11:06:56;13.85;;;4.28;;
69369;SDS011;56530;42.640;23.372;2023-02-26T11:09:30;18.15;;;3.90;;
69369;SDS011;56530;42.640;23.372;2023-02-26T11:14:35;18.92;;;4.50;;
69369;SDS011;56530;42.640;23.372;2023-02-26T11:17:03;17.63;;;4.25;;
69369;SDS011;56530;42.640;23.372;2023-02-26T11:19:32;9.95;;;3.83;;
69369;SDS011;56530;42.640;23.372;2023-02-26T11:22:00;13.43;;;4.38;;
69369;SDS011;56530;42.640;23.372;2023-02-26T11:24:29;14.32;;;3.72;;
69369;SDS011;56530;42.640;23.372;2023-02-26T11:26:58;13.20;;;3.80;;
69369;SDS011;56530;42.640;23.372;2023-02-26T11:29:31;22.75;;;4.13;;
69369;SDS011;56530;42.640;23.372;2023-02-26T11:32:02;13.80;;;3.90;;
69369;SDS011;56530;42.640;23.372;2023-02-26T11:34:27;13.57;;;3.67;;
69369;SDS011;56530;42.640;23.372;2023-02-26T11:36:54;18.58;;;4.03;;
69369;SDS011;56530;42.640;23.372;2023-02-26T11:39:22;15.18;;;4.07;;
69369;SDS011;56530;42.640;23.372;2023-02-26T11:41:52;17.60;;;3.97;;
69369;SDS011;56530;42.640;23.372;2023-02-26T11:44:20;16.52;;;3.75;;
69369;SDS011;56530;42.640;23.372;2023-02-26T11:46:54;17.35;;;4.68;;
69369;SDS011;56530;42.640;23.372;2023-02-26T11:49:22;11.63;;;4.38;;
69369;SDS011;56530;42.640;23.372;2023-02-26T11:51:59;14.68;;;3.47;;
69369;SDS011;56530;42.640;23.372;2023-02-26T11:54:48;11.82;;;3.65;;
69369;SDS011;56530;42.640;23.372;2023-02-26T11:57:24;13.95;;;4.65;;
69369;SDS011;56530;42.640;23.372;2023-02-26T11:59:51;15.73;;;3.47;;
69369;SDS011;56530;42.640;23.372;2023-02-26T12:02:19;22.75;;;4.32;;
69369;SDS011;56530;42.640;23.372;2023-02-26T12:04:48;11.35;;;4.68;;
69369;SDS011;56530;42.640;23.372;2023-02-26T12:07:16;13.95;;;4.53;;
69369;SDS011;56530;42.640;23.372;2023-02-26T12:09:42;10.32;;;4.38;;
69369;SDS011;56530;42.640;23.372;2023-02-26T12:12:15;23.65;;;6.35;;
69369;SDS011;56530;42.640;23.372;2023-02-26T12:14:59;25.02;;;4.50;;
69369;SDS011;56530;42.640;23.372;2023-02-26T12:20:34;17.55;;;5.57;;
69369;SDS011;56530;42.640;23.372;2023-02-26T12:31:25;22.55;;;4.47;;
69369;SDS011;56530;42.640;23.372;2023-02-26T12:36:48;12.48;;;4.68;;
69369;SDS011;56530;42.640;23.372;2023-02-26T12:53:10;16.98;;;4.63;;
69369;SDS011;56530;42.640;23.372;2023-02-26T12:55:45;21.05;;;4.30;;
69369;SDS011;56530;42.640;23.372;2023-02-26T12:58:19;18.08;;;4.85;;
69369;SDS011;56530;42.640;23.372;2023-02-26T13:18:04;21.95;;;5.10;;
69369;SDS011;56530;42.640;23.372;2023-02-26T13:20:36;18.55;;;4.97;;
69369;SDS011;56530;42.640;23.372;2023-02-26T13:25:36;24.90;;;5.78;;
69369;SDS011;56530;42.640;23.372;2023-02-26T13:31:02;16.80;;;5.00;;
69369;SDS011;56530;42.640;23.372;2023-02-26T13:33:29;25.55;;;5.38;;
69369;SDS011;56530;42.640;23.372;2023-02-26T13:35:56;21.00;;;4.82;;
69369;SDS011;56530;42.640;23.372;2023-02-26T13:41:14;20.67;;;4.95;;
69369;SDS011;56530;42.640;23.372;2023-02-26T13:48:57;25.20;;;4.50;;
69369;SDS011;56530;42.640;23.372;2023-02-26T13:54:02;23.38;;;4.93;;
69369;SDS011;56530;42.640;23.372;2023-02-26T13:56:42;37.78;;;5.85;;
69369;SDS011;56530;42.640;23.372;2023-02-26T13:59:34;24.00;;;5.32;;
69369;SDS011;56530;42.640;23.372;2023-02-26T14:02:29;19.40;;;5.72;;
69369;SDS011;56530;42.640;23.372;2023-02-26T14:04:59;25.60;;;4.97;;
69369;SDS011;56530;42.640;23.372;2023-02-26T14:10:14;26.42;;;5.55;;
69369;SDS011;56530;42.640;23.372;2023-02-26T14:15:47;34.67;;;6.50;;
69369;SDS011;56530;42.640;23.372;2023-02-26T14:18:24;29.45;;;5.82;;
69369;SDS011;56530;42.640;23.372;2023-02-26T14:20:50;23.17;;;5.85;;
69369;SDS011;56530;42.640;23.372;2023-02-26T14:23:31;27.48;;;6.15;;
69369;SDS011;56530;42.640;23.372;2023-02-26T14:26:04;29.65;;;5.80;;
69369;SDS011;56530;42.640;23.372;2023-02-26T14:28:39;38.63;;;7.00;;
69369;SDS011;56530;42.640;23.372;2023-02-26T14:34:36;28.38;;;5.82;;
69369;SDS011;56530;42.640;23.372;2023-02-26T14:42:16;30.40;;;6.40;;
69369;SDS011;56530;42.640;23.372;2023-02-26T14:44:46;38.58;;;6.93;;
69369;SDS011;56530;42.640;23.372;2023-02-26T14:47:13;37.70;;;8.13;;
69369;SDS011;56530;42.640;23.372;2023-02-26T14:49:40;31.80;;;6.22;;
69369;SDS011;56530;42.640;23.372;2023-02-26T15:08:24;45.47;;;10.73;;
69369;SDS011;56530;42.640;23.372;2023-02-26T15:16:39;41.25;;;9.65;;
69369;SDS011;56530;42.640;23.372;2023-02-26T15:25:29;28.48;;;7.93;;
69369;SDS011;56530;42.640;23.372;2023-02-26T15:27:57;31.98;;;7.25;;
69369;SDS011;56530;42.640;23.372;2023-02-26T15:30:22;44.08;;;16.60;;
69369;SDS011;56530;42.640;23.372;2023-02-26T15:32:48;31.10;;;7.78;;
69369;SDS011;56530;42.640;23.372;2023-02-26T15:35:21;44.80;;;8.60;;
69369;SDS011;56530;42.640;23.372;2023-02-26T15:37:52;41.03;;;7.80;;
69369;SDS011;56530;42.640;23.372;2023-02-26T15:40:21;23.88;;;6.68;;
69369;SDS011;56530;42.640;23.372;2023-02-26T15:42:48;26.40;;;6.15;;
69369;SDS011;56530;42.640;23.372;2023-02-26T15:45:21;26.17;;;7.20;;
69369;SDS011;56530;42.640;23.372;2023-02-26T15:47:50;28.33;;;6.30;;
69369;SDS011;56530;42.640;23.372;2023-02-26T15:50:19;20.63;;;6.93;;
69369;SDS011;56530;42.640;23.372;2023-02-26T15:52:49;28.33;;;6.45;;
69369;SDS011;56530;42.640;23.372;2023-02-26T15:55:15;31.23;;;6.95;;
69369;SDS011;56530;42.640;23.372;2023-02-26T15:57:41;32.05;;;7.10;;
69369;SDS011;56530;42.640;23.372;2023-02-26T16:00:17;32.20;;;7.45;;
69369;SDS011;56530;42.640;23.372;2023-02-26T16:02:49;34.53;;;6.88;;
69369;SDS011;56530;42.640;23.372;2023-02-26T16:05:18;30.40;;;7.53;;
69369;SDS011;56530;42.640;23.372;2023-02-26T16:07:43;33.45;;;7.07;;
69369;SDS011;56530;42.640;23.372;2023-02-26T16:10:32;30.00;;;8.38;;
69369;SDS011;56530;42.640;23.372;2023-02-26T16:13:03;37.17;;;6.97;;
69369;SDS011;56530;42.640;23.372;2023-02-26T16:15:34;24.73;;;6.70;;
69369;SDS011;56530;42.640;23.372;2023-02-26T16:18:02;23.20;;;5.38;;
69369;SDS011;56530;42.640;23.372;2023-02-26T16:20:40;19.63;;;7.07;;
69369;SDS011;56530;42.640;23.372;2023-02-26T16:23:14;26.40;;;7.32;;
69369;SDS011;56530;42.640;23.372;2023-02-26T16:28:21;18.58;;;5.10;;
69369;SDS011;56530;42.640;23.372;2023-02-26T16:30:51;23.35;;;5.72;;
69369;SDS011;56530;42.640;23.372;2023-02-26T16:33:20;20.80;;;5.85;;
69369;SDS011;56530;42.640;23.372;2023-02-26T16:35:47;23.95;;;6.25;;
69369;SDS011;56530;42.640;23.372;2023-02-26T16:38:23;25.30;;;6.60;;
69369;SDS011;56530;42.640;23.372;2023-02-26T16:40:59;34.45;;;7.03;;
69369;SDS011;56530;42.640;23.372;2023-02-26T16:43:33;37.30;;;7.57;;
69369;SDS011;56530;42.640;23.372;2023-02-26T16:46:06;30.55;;;6.80;;
69369;SDS011;56530;42.640;23.372;2023-02-26T16:48:37;29.27;;;8.15;;
69369;SDS011;56530;42.640;23.372;2023-02-26T16:51:15;41.22;;;9.50;;
69369;SDS011;56530;42.640;23.372;2023-02-26T16:56:31;30.95;;;8.40;;
69369;SDS011;56530;42.640;23.372;2023-02-26T16:59:09;23.90;;;6.85;;
69369;SDS011;56530;42.640;23.372;2023-02-26T17:02:11;36.85;;;8.15;;
69369;SDS011;56530;42.640;23.372;2023-02-26T17:04:34;29.50;;;7.32;;
69369;SDS011;56530;42.640;23.372;2023-02-26T17:07:01;32.22;;;7.43;;
69369;SDS011;56530;42.640;23.372;2023-02-26T17:14:43;18.10;;;7.45;;
69369;SDS011;56530;42.640;23.372;2023-02-26T17:17:11;30.92;;;8.75;;
69369;SDS011;56530;42.640;23.372;2023-02-26T17:19:37;30.35;;;7.65;;
69369;SDS011;56530;42.640;23.372;2023-02-26T17:22:02;25.23;;;6.28;;
69369;SDS011;56530;42.640;23.372;2023-02-26T17:24:30;24.33;;;7.13;;
69369;SDS011;56530;42.640;23.372;2023-02-26T17:26:58;30.02;;;7.15;;
69369;SDS011;56530;42.640;23.372;2023-02-26T17:29:26;28.77;;;9.63;;
69369;SDS011;56530;42.640;23.372;2023-02-26T17:31:56;31.92;;;7.75;;
69369;SDS011;56530;42.640;23.372;2023-02-26T17:34:21;29.92;;;8.20;;
69369;SDS011;56530;42.640;23.372;2023-02-26T17:36:48;29.30;;;7.57;;
69369;SDS011;56530;42.640;23.372;2023-02-26T17:39:13;33.97;;;7.30;;
69369;SDS011;56530;42.640;23.372;2023-02-26T17:41:42;36.13;;;8.82;;
69369;SDS011;56530;42.640;23.372;2023-02-26T17:44:09;33.42;;;9.10;;